Linworth, Ohio
Current Conditions -  °F | °C
As of 3:53 AM on Monday 22 Dec 2014 (Local Time) from KOSU Reporting Station
Haze Haze  
Wind Chill: 23°   Ceiling: Unl
Heat Index: 23°   Visibility: 5mi
Dew Point: 21°   Wind: 3mph
Humidity: 92%   Direction: 40°NE
Pressure: 30.08"   Gusts: NA
Location:  40.0994°N, 83.0166°W
Report Text: KOSU 220853Z AUTO 04003KT 5SM BR CLR M05/M06 A3008 RMK AO2 SLP195 T10501061 56014
Loading
Personal Weather Stations






























Interactive Weather Map New forecast layout! Learn more

10-Day Weather Forecast

Advertisements
Track Severe Weather on mobile